Time;durP1;ratioP1;P1;durP2;ratioP2;P2;SDS_P1;SDS_P2;PMS_P1;PMS_P2;Temp;Humidity;BMP_temperature;BMP_pressure;BME280_temperature;BME280_humidity;BME280_pressure;Samples;Min_cycle;Max_cycle;Signal;HPM_P1;HPM_P2
2021/12/25 00:03:01;;;;;;;39.88;22.25;;;;;;;0.50;100.00;98845.48;1785326;80;21204;-81
2021/12/25 00:06:07;;;;;;;35.95;21.45;;;;;;;0.48;100.00;98839.41;1786474;80;21814;-78
2021/12/25 00:09:12;;;;;;;36.25;23.55;;;;;;;0.44;100.00;98838.01;1779407;80;21264;-80
2021/12/25 00:12:18;;;;;;;39.33;25.52;;;;;;;0.40;100.00;98841.48;1757806;81;21315;-79
2021/12/25 00:15:24;;;;;;;33.70;22.77;;;;;;;0.42;100.00;98820.65;1767131;81;21638;-80
2021/12/25 00:18:30;;;;;;;37.13;22.90;;;;;;;0.44;100.00;98813.80;1768690;80;21909;-81
2021/12/25 00:21:35;;;;;;;42.10;22.90;;;;;;;0.45;100.00;98815.48;1769366;80;21718;-81
2021/12/25 00:24:43;;;;;;;27.20;17.55;;;;;;;0.46;100.00;98822.05;1762392;80;21126;-81
2021/12/25 00:28:04;;;;;;;33.28;22.13;;;;;;;0.41;100.00;98817.62;1785996;80;21186;-78
2021/12/25 00:31:24;;;;;;;32.60;22.35;;;;;;;0.37;100.00;98813.52;1786335;80;21861;-81
2021/12/25 00:34:16;;;;;;;34.35;24.72;;;;;;;0.39;100.00;98823.66;1786460;80;21758;-81
2021/12/25 00:37:23;;;;;;;40.85;25.12;;;;;;;0.41;100.00;98828.38;1786188;80;21818;-81
2021/12/25 00:40:28;;;;;;;40.20;27.22;;;;;;;0.45;100.00;98828.44;1780571;79;21839;-79
2021/12/25 00:43:35;;;;;;;38.10;26.25;;;;;;;0.48;100.00;98822.77;1784798;80;21838;-78
2021/12/25 00:46:40;;;;;;;39.73;27.40;;;;;;;0.55;100.00;98830.23;1786281;80;21158;-80
2021/12/25 00:49:45;;;;;;;46.95;28.27;;;;;;;0.59;100.00;98827.10;1786140;80;21261;-81
2021/12/25 00:52:49;;;;;;;51.75;27.75;;;;;;;0.62;100.00;98818.74;1785819;80;21791;-78
2021/12/25 00:55:54;;;;;;;40.10;24.95;;;;;;;0.61;100.00;98823.78;1769918;79;21873;-78
2021/12/25 00:58:59;;;;;;;46.23;27.75;;;;;;;0.57;100.00;98829.11;1761138;80;21288;-79
2021/12/25 01:02:05;;;;;;;43.02;27.37;;;;;;;0.55;100.00;98836.47;1770809;80;21343;-80
2021/12/25 01:05:11;;;;;;;46.60;27.98;;;;;;;0.55;100.00;98833.77;1770562;81;21154;-79
2021/12/25 01:08:17;;;;;;;42.15;28.42;;;;;;;0.53;100.00;98833.09;1770823;80;21170;-78
2021/12/25 01:11:29;;;;;;;45.83;25.23;;;;;;;0.47;100.00;98829.16;1770123;81;21130;-79
2021/12/25 01:14:46;;;;;;;42.08;24.98;;;;;;;0.41;100.00;98827.03;1769666;80;21265;-80
2021/12/25 01:18:30;;;;;;;37.45;22.75;;;;;;;0.36;100.00;98825.79;1768163;81;21327;-79
2021/12/25 01:24:58;;;;;;;42.67;26.15;;;;;;;0.23;100.00;98843.09;1770019;81;21299;-79
2021/12/25 01:31:15;;;;;;;47.67;25.37;;;;;;;0.17;100.00;98843.68;1770152;80;21253;-80
2021/12/25 01:47:59;;;;;;;73.07;36.20;;;;;;;-0.06;100.00;98853.08;1769049;80;21283;-79
2021/12/25 01:51:04;;;;;;;56.95;31.33;;;;;;;-0.07;100.00;98860.80;1768733;81;21870;-80
2021/12/25 01:54:10;;;;;;;69.53;35.92;;;;;;;-0.08;100.00;98857.77;1775645;79;21685;-80
2021/12/25 01:57:15;;;;;;;50.65;29.67;;;;;;;-0.05;100.00;98851.61;1802163;79;21502;-79
2021/12/25 02:00:30;;;;;;;59.23;33.55;;;;;;;-0.03;100.00;98847.42;1801865;79;21268;-79
2021/12/25 02:03:36;;;;;;;45.38;29.42;;;;;;;-0.04;100.00;98840.36;1802054;79;21299;-79
2021/12/25 02:06:41;;;;;;;55.98;31.12;;;;;;;-0.07;100.00;98838.80;1802721;79;21145;-79
2021/12/25 02:09:46;;;;;;;52.50;32.65;;;;;;;-0.10;100.00;98839.56;1799497;79;21885;-79
2021/12/25 02:12:51;;;;;;;55.85;29.40;;;;;;;-0.13;100.00;98847.44;1796725;80;21181;-79
2021/12/25 02:15:59;;;;;;;44.23;26.68;;;;;;;-0.15;100.00;98845.88;1767008;80;21300;-79
2021/12/25 02:19:10;;;;;;;41.18;23.73;;;;;;;-0.16;100.00;98839.66;1757513;81;21281;-79
2021/12/25 02:22:14;;;;;;;41.05;22.82;;;;;;;-0.16;100.00;98838.31;1757220;81;21339;-79
2021/12/25 02:25:20;;;;;;;42.95;22.70;;;;;;;-0.19;100.00;98833.72;1788244;79;21809;-79
2021/12/25 02:28:26;;;;;;;48.30;26.95;;;;;;;-0.22;100.00;98836.21;1800938;79;21343;-80
2021/12/25 02:31:31;;;;;;;48.20;29.25;;;;;;;-0.25;100.00;98833.80;1798389;79;21901;-80
2021/12/25 02:34:36;;;;;;;40.60;24.85;;;;;;;-0.26;100.00;98838.33;1798840;79;21288;-80
2021/12/25 02:37:41;;;;;;;40.50;26.05;;;;;;;-0.26;100.00;98843.70;1798681;79;21315;-79
2021/12/25 02:40:48;;;;;;;45.83;26.95;;;;;;;-0.26;100.00;98845.05;1762231;79;21327;-80
2021/12/25 02:43:54;;;;;;;46.98;28.87;;;;;;;-0.24;100.00;98848.08;1752377;82;21304;-79
2021/12/25 02:47:10;;;;;;;52.60;29.98;;;;;;;-0.20;100.00;98847.66;1770572;81;21323;-79
2021/12/25 02:50:11;;;;;;;58.30;33.05;;;;;;;-0.12;100.00;98855.85;1770284;81;21288;-80
2021/12/25 02:53:16;;;;;;;59.13;32.35;;;;;;;-0.07;100.00;98850.89;1770051;81;21287;-79
2021/12/25 02:56:21;;;;;;;47.33;27.40;;;;;;;-0.02;100.00;98849.95;1770344;81;21295;-80
2021/12/25 02:59:26;;;;;;;37.10;21.42;;;;;;;0.03;100.00;98846.83;1770546;81;21157;-80
2021/12/25 03:02:31;;;;;;;39.67;23.27;;;;;;;0.07;100.00;98833.95;1733699;83;21848;-80
2021/12/25 03:05:37;;;;;;;48.55;29.23;;;;;;;0.04;100.00;98846.33;1696757;84;21793;-80
2021/12/25 03:08:41;;;;;;;64.75;31.00;;;;;;;0.07;100.00;98856.31;1733275;83;21888;-80
2021/12/25 03:11:47;;;;;;;40.30;25.20;;;;;;;0.16;100.00;98866.20;1768728;80;21212;-80
2021/12/25 03:15:06;;;;;;;46.90;28.52;;;;;;;0.22;100.00;98860.22;1770210;81;21264;-80
2021/12/25 03:18:07;;;;;;;55.15;25.35;;;;;;;0.24;100.00;98870.36;1733250;83;21310;-80
2021/12/25 03:21:12;;;;;;;39.73;24.15;;;;;;;0.28;100.00;98861.48;1768676;81;21778;-79
2021/12/25 03:24:17;;;;;;;49.53;27.37;;;;;;;0.24;100.00;98862.29;1774709;79;21288;-79
2021/12/25 03:27:17;;;;;;;45.50;26.27;;;;;;;0.21;100.00;98864.41;1786409;80;21308;-79
2021/12/25 03:30:24;;;;;;;45.65;26.30;;;;;;;0.14;100.00;98857.91;1786410;80;21189;-80
2021/12/25 03:33:28;;;;;;;40.80;26.23;;;;;;;0.11;100.00;98866.28;1786422;80;21205;-79
2021/12/25 03:36:33;;;;;;;43.48;27.25;;;;;;;0.11;100.00;98860.91;1786357;80;21280;-79
2021/12/25 03:39:38;;;;;;;43.87;27.40;;;;;;;0.14;100.00;98862.81;1791010;79;21787;-79
2021/12/25 03:42:44;;;;;;;52.40;29.77;;;;;;;0.17;100.00;98863.85;1794253;79;21810;-79
2021/12/25 03:45:51;;;;;;;48.65;32.38;;;;;;;0.22;100.00;98872.33;1796451;79;21821;-79
2021/12/25 03:58:47;;;;;;;44.05;28.92;;;;;;;0.52;100.00;98879.83;1796670;79;21249;-79
2021/12/25 04:01:57;;;;;;;45.10;29.70;;;;;;;0.58;100.00;98878.38;1796721;79;21335;-80
2021/12/25 04:05:01;;;;;;;50.67;30.45;;;;;;;0.62;100.00;98885.17;1796594;79;21934;-79
2021/12/25 04:08:08;;;;;;;45.12;28.75;;;;;;;0.73;100.00;98888.50;1796874;79;21181;-79
2021/12/25 04:11:26;;;;;;;44.33;29.90;;;;;;;0.83;100.00;98894.34;1796590;79;21228;-79
2021/12/25 04:14:21;;;;;;;45.12;29.95;;;;;;;0.94;100.00;98903.56;1796711;79;21793;-79
2021/12/25 04:17:26;;;;;;;37.28;26.25;;;;;;;0.99;100.00;98913.41;1796835;79;21304;-79
2021/12/25 04:20:31;;;;;;;50.40;30.00;;;;;;;1.04;100.00;98916.50;1797128;79;21264;-79
2021/12/25 04:23:41;;;;;;;44.30;29.48;;;;;;;1.08;100.00;98912.48;1795405;79;21205;-79
2021/12/25 04:26:48;;;;;;;51.65;31.33;;;;;;;1.10;100.00;98915.89;1784083;80;21323;-79
2021/12/25 04:30:04;;;;;;;45.65;30.32;;;;;;;1.10;100.00;98911.85;1786161;80;21281;-78
2021/12/25 05:06:51;;;;;;;53.78;33.08;;;;;;;1.21;100.00;98904.90;1768249;80;21315;-79
2021/12/25 05:09:58;;;;;;;46.35;27.70;;;;;;;1.22;100.00;98909.31;1778243;80;21189;-79
2021/12/25 05:13:04;;;;;;;51.58;33.90;;;;;;;1.27;100.00;98908.83;1785773;80;21165;-79
2021/12/25 05:16:09;;;;;;;50.63;29.15;;;;;;;1.26;100.00;98898.56;1786094;80;21260;-79
2021/12/25 05:19:14;;;;;;;47.13;29.87;;;;;;;1.33;100.00;98909.59;1786320;80;21158;-79
2021/12/25 05:22:18;;;;;;;44.40;30.57;;;;;;;1.33;100.00;98918.18;1786525;80;21291;-79
2021/12/25 05:25:23;;;;;;;40.28;26.15;;;;;;;1.32;100.00;98919.16;1786472;79;21854;-79
2021/12/25 05:28:38;;;;;;;48.23;30.72;;;;;;;1.31;100.00;98926.89;1785951;80;21280;-79
2021/12/25 05:31:39;;;;;;;42.27;25.17;;;;;;;1.32;100.00;98924.55;1786805;80;21280;-79
2021/12/25 05:34:46;;;;;;;51.73;28.85;;;;;;;1.34;100.00;98913.13;1786353;80;21851;-79
2021/12/25 05:37:58;;;;;;;40.80;25.60;;;;;;;1.31;100.00;98903.49;1783375;80;21327;-79
2021/12/25 05:41:11;;;;;;;36.35;24.57;;;;;;;1.28;100.00;98901.97;1770907;80;21272;-78
2021/12/25 05:44:16;;;;;;;41.88;27.10;;;;;;;1.25;100.00;98917.07;1745920;81;21324;-79
2021/12/25 05:47:31;;;;;;;42.90;27.22;;;;;;;1.22;100.00;98920.56;1730878;81;21304;-79
2021/12/25 05:50:38;;;;;;;37.90;26.10;;;;;;;1.20;100.00;98917.19;1729118;81;21272;-79
2021/12/25 05:53:51;;;;;;;45.25;27.75;;;;;;;1.22;100.00;98921.91;1728420;81;21908;-79
2021/12/25 05:57:15;;;;;;;39.95;24.70;;;;;;;1.24;100.00;98923.97;1696658;83;21889;-78
2021/12/25 06:00:22;;;;;;;47.13;27.62;;;;;;;1.33;100.00;98915.48;1696823;84;21149;-79
2021/12/25 06:03:26;;;;;;;38.45;23.30;;;;;;;1.35;100.00;98920.20;1724084;83;21312;-79
2021/12/25 06:06:31;;;;;;;55.05;31.37;;;;;;;1.36;100.00;98926.78;1727077;83;21308;-78
2021/12/25 06:09:38;;;;;;;45.10;30.70;;;;;;;1.37;100.00;98933.05;1717054;81;21276;-79
2021/12/25 06:12:50;;;;;;;46.08;30.43;;;;;;;1.42;100.00;98948.25;1701950;84;21767;-78
2021/12/25 06:16:00;;;;;;;49.65;29.10;;;;;;;1.51;100.00;98960.83;1708400;82;21787;-79
2021/12/25 06:19:07;;;;;;;42.13;28.38;;;;;;;1.58;100.00;98975.38;1701241;84;21288;-78
2021/12/25 06:22:15;;;;;;;46.10;28.02;;;;;;;1.55;100.00;98972.97;1699836;83;21335;-78
2021/12/25 06:25:37;;;;;;;50.40;32.40;;;;;;;1.53;100.00;98979.02;1708155;80;21322;-79
2021/12/25 06:28:59;;;;;;;42.05;27.95;;;;;;;1.49;100.00;98967.69;1709595;84;21308;-78
2021/12/25 06:32:23;;;;;;;44.55;26.97;;;;;;;1.49;100.00;98981.67;1706525;81;21861;-78
2021/12/25 06:35:45;;;;;;;47.98;29.18;;;;;;;1.43;100.00;98995.25;1699696;84;21858;-78
2021/12/25 06:38:52;;;;;;;47.35;29.25;;;;;;;1.37;100.00;99000.41;1703356;80;21284;-77
2021/12/25 06:42:00;;;;;;;40.83;26.50;;;;;;;1.35;100.00;99001.87;1757292;81;21947;-77
2021/12/25 06:45:06;;;;;;;45.88;27.50;;;;;;;1.37;100.00;99009.33;1756811;81;21369;-78
2021/12/25 06:48:12;;;;;;;55.55;32.93;;;;;;;1.36;100.00;99031.86;1750312;81;21583;-77
2021/12/25 06:51:19;;;;;;;54.70;33.08;;;;;;;1.38;100.00;99058.17;1724585;81;21343;-78
2021/12/25 06:54:26;;;;;;;48.68;31.73;;;;;;;1.50;100.00;99050.73;1737133;81;21304;-78
2021/12/25 06:57:55;;;;;;;51.58;32.55;;;;;;;1.65;100.00;99026.34;1790789;80;21319;-78
2021/12/25 07:01:00;;;;;;;51.00;29.48;;;;;;;1.74;100.00;99024.56;1785161;80;21276;-78
2021/12/25 07:04:06;;;;;;;52.53;31.25;;;;;;;1.79;100.00;99021.78;1732445;82;21651;-78
2021/12/25 07:07:29;;;;;;;42.20;26.82;;;;;;;1.85;100.00;99018.13;1733500;82;21204;-77
2021/12/25 07:10:40;;;;;;;45.92;30.00;;;;;;;1.91;100.00;99014.81;1741538;81;21701;-78
2021/12/25 07:13:48;;;;;;;55.40;33.63;;;;;;;1.97;100.00;99010.15;1755969;81;21296;-78
2021/12/25 07:17:06;;;;;;;45.75;30.95;;;;;;;2.07;100.00;99006.03;1756947;81;21602;-77
2021/12/25 07:20:19;;;;;;;54.85;31.90;;;;;;;2.19;100.00;99009.70;1756990;81;21295;-77
2021/12/25 07:23:29;;;;;;;45.35;29.52;;;;;;;2.32;100.00;99007.97;1757363;81;21245;-77
2021/12/25 07:26:39;;;;;;;51.00;31.95;;;;;;;2.45;100.00;99006.23;1791902;80;21269;-77
2021/12/25 07:29:47;;;;;;;44.95;29.85;;;;;;;2.50;100.00;99003.40;1795751;80;21169;-78
2021/12/25 07:32:51;;;;;;;50.08;31.25;;;;;;;2.58;100.00;99003.09;1778343;80;21324;-78
2021/12/25 07:35:57;;;;;;;46.23;30.45;;;;;;;2.62;100.00;98997.23;1769390;81;21303;-78
2021/12/25 07:39:02;;;;;;;48.90;30.50;;;;;;;2.67;100.00;98986.80;1763498;81;21312;-78
2021/12/25 07:42:09;;;;;;;46.85;30.30;;;;;;;2.73;100.00;98994.29;1732119;83;21914;-78
2021/12/25 07:45:22;;;;;;;47.70;28.73;;;;;;;2.83;100.00;99013.09;1732211;83;21296;-78
2021/12/25 07:48:28;;;;;;;38.78;25.72;;;;;;;2.88;100.00;99027.47;1728184;81;21280;-78
2021/12/25 07:51:34;;;;;;;43.02;26.27;;;;;;;2.81;100.00;99063.69;1761796;80;21264;-78
2021/12/25 07:54:39;;;;;;;48.28;26.48;;;;;;;2.72;100.00;99080.33;1735015;81;21818;-78
2021/12/25 07:57:46;;;;;;;41.30;26.15;;;;;;;2.72;100.00;99082.18;1710725;83;21303;-79
2021/12/25 08:00:53;;;;;;;45.40;29.48;;;;;;;2.70;100.00;99072.90;1704074;84;21312;-79
2021/12/25 08:03:59;;;;;;;43.83;26.33;;;;;;;2.66;100.00;99055.31;1706345;83;21283;-79
2021/12/25 08:07:05;;;;;;;49.00;30.05;;;;;;;2.66;100.00;99080.12;1709239;83;21363;-79
2021/12/25 08:10:16;;;;;;;44.38;28.40;;;;;;;2.66;100.00;99076.06;1708405;82;21317;-79
2021/12/25 08:13:20;;;;;;;39.60;25.62;;;;;;;2.74;100.00;99071.59;1708417;83;21846;-79
2021/12/25 08:16:25;;;;;;;49.98;29.18;;;;;;;2.84;100.00;99063.39;1705327;84;21150;-80
2021/12/25 08:19:31;;;;;;;38.15;26.68;;;;;;;2.87;100.00;99063.08;1707616;83;21213;-80
2021/12/25 08:22:55;;;;;;;46.42;29.90;;;;;;;2.92;100.00;99052.66;1710723;82;21213;-80
2021/12/25 08:26:18;;;;;;;46.68;27.02;;;;;;;3.00;100.00;99049.98;1728893;83;21292;-80
2021/12/25 08:29:41;;;;;;;39.42;25.60;;;;;;;3.18;100.00;99053.14;1728811;83;21316;-80
2021/12/25 08:33:04;;;;;;;38.35;25.65;;;;;;;3.14;100.00;99056.66;1728487;82;21312;-81
2021/12/25 08:36:28;;;;;;;46.23;27.98;;;;;;;3.04;100.00;99064.88;1726818;82;21165;-81
2021/12/25 08:39:33;;;;;;;37.90;25.35;;;;;;;2.96;100.00;99066.66;1739619;81;21703;-80
2021/12/25 08:42:45;;;;;;;45.75;26.95;;;;;;;2.83;100.00;99073.85;1758532;81;21304;-81
2021/12/25 08:45:49;;;;;;;38.60;25.57;;;;;;;2.69;100.00;99066.31;1758680;81;21229;-81
2021/12/25 08:48:54;;;;;;;41.75;24.47;;;;;;;2.60;100.00;99063.20;1794876;79;21841;-81
2021/12/25 08:52:01;;;;;;;37.58;24.47;;;;;;;2.55;100.00;99066.36;1801913;79;21295;-81
2021/12/25 08:55:05;;;;;;;39.70;25.77;;;;;;;2.52;100.00;99066.66;1798951;79;21787;-81
2021/12/25 08:58:09;;;;;;;43.40;27.80;;;;;;;2.47;100.00;99059.53;1800796;79;21314;-81
2021/12/25 09:01:15;;;;;;;39.50;24.18;;;;;;;2.47;100.00;99067.63;1794120;80;21646;-81
2021/12/25 09:04:20;;;;;;;42.30;25.80;;;;;;;2.49;100.00;99068.31;1796687;80;21165;-82
2021/12/25 09:07:25;;;;;;;42.95;25.80;;;;;;;2.49;100.00;99065.61;1795677;80;21299;-82
2021/12/25 09:10:35;;;;;;;48.50;28.80;;;;;;;2.50;100.00;99064.13;1794617;80;21715;-80
2021/12/25 09:13:40;;;;;;;47.40;28.47;;;;;;;2.51;100.00;99077.97;1795182;80;21225;-82
2021/12/25 09:16:46;;;;;;;47.45;30.32;;;;;;;2.56;100.00;99064.00;1807532;79;21161;-82
2021/12/25 09:19:51;;;;;;;45.83;28.95;;;;;;;2.63;100.00;99076.37;1807841;79;21833;-82
2021/12/25 09:22:57;;;;;;;57.05;31.35;;;;;;;2.71;100.00;99090.79;1808077;79;21185;-82
2021/12/25 09:26:02;;;;;;;54.55;32.73;;;;;;;2.79;100.00;99088.67;1786885;78;21135;-80
2021/12/25 09:29:06;;;;;;;51.98;31.48;;;;;;;2.83;100.00;99096.81;1786567;80;21319;-81
2021/12/25 09:32:12;;;;;;;44.50;27.60;;;;;;;2.84;100.00;99082.30;1786311;80;21658;-80
2021/12/25 09:35:17;;;;;;;39.83;25.10;;;;;;;2.84;100.00;99084.15;1786174;80;21277;-81
2021/12/25 09:38:24;;;;;;;49.83;29.20;;;;;;;2.79;100.00;99081.41;1786222;80;21177;-81
2021/12/25 09:41:29;;;;;;;42.35;26.65;;;;;;;2.80;100.00;99083.10;1770304;81;21149;-81
2021/12/25 09:44:35;;;;;;;54.08;31.10;;;;;;;2.79;100.00;99077.36;1770292;81;21797;-81
2021/12/25 09:47:41;;;;;;;44.42;28.07;;;;;;;2.84;100.00;99078.75;1770347;81;21177;-80
2021/12/25 09:50:47;;;;;;;47.00;28.92;;;;;;;2.93;100.00;99081.35;1738312;82;21237;-79
2021/12/25 09:54:06;;;;;;;44.53;28.47;;;;;;;2.96;100.00;99070.72;1735078;80;21221;-80
2021/12/25 09:57:14;;;;;;;40.78;26.07;;;;;;;2.91;100.00;99079.30;1719987;83;21324;-81
2021/12/25 10:00:29;;;;;;;44.40;28.80;;;;;;;2.92;100.00;99086.41;1717371;83;21281;-80
2021/12/25 10:03:51;;;;;;;46.70;27.75;;;;;;;2.92;100.00;99084.22;1713949;83;21317;-81
2021/12/25 10:06:56;;;;;;;36.13;25.02;;;;;;;2.94;100.00;99088.95;1717421;83;21934;-81
2021/12/25 10:10:19;;;;;;;53.13;30.12;;;;;;;2.96;100.00;99089.62;1723599;83;21303;-81
2021/12/25 10:13:30;;;;;;;39.78;25.85;;;;;;;2.96;100.00;99097.22;1703310;84;21342;-80
2021/12/25 10:16:40;;;;;;;37.53;24.65;;;;;;;3.01;100.00;99100.80;1670330;85;21568;-81
2021/12/25 10:19:46;;;;;;;39.15;24.23;;;;;;;3.06;100.00;99089.05;1701264;84;21292;-80
2021/12/25 10:23:12;;;;;;;47.27;28.38;;;;;;;3.07;100.00;99093.44;1674159;84;21233;-80
2021/12/25 10:26:16;;;;;;;43.42;29.72;;;;;;;3.05;100.00;99096.28;1733369;82;21265;-81
2021/12/25 10:29:34;;;;;;;38.48;25.68;;;;;;;3.06;100.00;99091.25;1697635;84;21296;-81
2021/12/25 10:32:47;;;;;;;47.50;28.20;;;;;;;3.05;100.00;99091.38;1675307;85;21320;-81
2021/12/25 10:35:53;;;;;;;39.67;26.45;;;;;;;2.99;100.00;99090.67;1698089;84;21284;-81
2021/12/25 10:39:21;;;;;;;48.75;30.52;;;;;;;2.98;100.00;99074.13;1678275;84;21202;-81
2021/12/25 10:42:28;;;;;;;48.98;27.77;;;;;;;3.01;100.00;99076.02;1702949;84;21347;-81
2021/12/25 10:45:34;;;;;;;41.92;27.25;;;;;;;3.05;100.00;99078.72;1705402;84;21321;-81
2021/12/25 10:48:39;;;;;;;58.20;31.42;;;;;;;3.05;100.00;99069.77;1703171;83;21286;-81
2021/12/25 10:51:45;;;;;;;45.65;28.40;;;;;;;3.01;100.00;99062.52;1745403;81;21670;-81
2021/12/25 10:54:54;;;;;;;46.20;28.98;;;;;;;3.08;100.00;99054.61;1749784;80;21169;-81
2021/12/25 10:58:01;;;;;;;45.40;29.48;;;;;;;3.11;100.00;99054.30;1759028;81;21295;-81
2021/12/25 11:01:06;;;;;;;43.35;26.70;;;;;;;3.19;100.00;99062.94;1759135;81;21837;-81
2021/12/25 11:04:11;;;;;;;40.35;26.33;;;;;;;3.29;100.00;99055.09;1759106;81;21275;-82
2021/12/25 11:07:24;;;;;;;41.00;27.98;;;;;;;3.28;100.00;99063.33;1733047;80;21755;-82
2021/12/25 11:10:30;;;;;;;41.25;27.02;;;;;;;3.25;100.00;99063.67;1770249;80;21162;-81
2021/12/25 11:13:50;;;;;;;38.85;23.98;;;;;;;3.35;100.00;99075.72;1784932;80;21833;-81
2021/12/25 11:16:56;;;;;;;40.92;28.47;;;;;;;3.36;100.00;99082.81;1785080;80;21197;-82
2021/12/25 11:20:04;;;;;;;43.38;27.17;;;;;;;3.28;100.00;99088.50;1784676;80;21279;-81
2021/12/25 11:23:10;;;;;;;41.77;27.95;;;;;;;3.27;100.00;99090.86;1786476;80;21854;-82
2021/12/25 11:26:16;;;;;;;49.23;29.52;;;;;;;3.30;100.00;99093.26;1753763;82;21810;-82
2021/12/25 11:29:23;;;;;;;46.80;28.12;;;;;;;3.36;100.00;99098.52;1753795;82;21296;-81
2021/12/25 11:32:28;;;;;;;50.70;30.02;;;;;;;3.42;100.00;99097.03;1753046;82;21626;-82
2021/12/25 11:35:38;;;;;;;47.78;28.62;;;;;;;3.50;100.00;99094.37;1753654;82;21154;-81
2021/12/25 11:38:40;;;;;;;42.55;28.55;;;;;;;3.65;100.00;99091.41;1753642;79;21312;-81
2021/12/25 11:41:45;;;;;;;39.42;27.45;;;;;;;3.80;100.00;99088.42;1760325;81;21177;-82
2021/12/25 11:44:55;;;;;;;41.08;26.75;;;;;;;3.82;100.00;99086.42;1760539;81;21149;-82
2021/12/25 11:48:04;;;;;;;39.53;25.50;;;;;;;3.75;100.00;99104.30;1759351;80;21322;-82
2021/12/25 11:51:09;;;;;;;42.08;27.27;;;;;;;3.62;100.00;99107.95;1755586;81;21324;-82
2021/12/25 11:58:00;;;;;;;47.85;29.87;;;;;;;3.66;100.00;99120.14;1791592;79;21853;-81
2021/12/25 12:00:58;;;;;;;43.85;28.60;;;;;;;3.72;100.00;99123.58;1792897;79;21319;-81
2021/12/25 12:04:26;;;;;;;44.50;28.90;;;;;;;3.83;100.00;99147.63;1790413;80;21201;-82
2021/12/25 12:07:32;;;;;;;44.60;29.05;;;;;;;3.98;100.00;99160.55;1801616;79;21311;-81
2021/12/25 12:11:00;;;;;;;48.45;30.32;;;;;;;4.17;100.00;99167.05;1773922;79;21421;-82
2021/12/25 12:14:28;;;;;;;52.60;30.85;;;;;;;4.24;100.00;99169.45;1770791;80;21870;-82
2021/12/25 12:17:38;;;;;;;42.30;28.50;;;;;;;4.39;100.00;99164.77;1768948;80;21279;-81
2021/12/25 12:20:47;;;;;;;39.73;27.98;;;;;;;4.45;100.00;99166.80;1770435;80;21280;-82
2021/12/25 12:24:21;;;;;;;48.42;28.02;;;;;;;4.55;100.00;99174.27;1771449;80;21193;-81
2021/12/25 12:27:03;;;;;;;40.10;24.67;;;;;;;4.52;100.00;99184.10;1797492;79;21212;-82
2021/12/25 12:30:10;;;;;;;46.33;31.48;;;;;;;4.44;100.00;99193.55;1802220;79;21276;-81
2021/12/25 12:33:29;;;;;;;43.83;28.77;;;;;;;4.36;100.00;99210.59;1800786;79;21350;-82
2021/12/25 12:36:35;;;;;;;42.80;25.92;;;;;;;4.29;100.00;99214.48;1802063;79;21761;-82
2021/12/25 12:39:40;;;;;;;38.20;26.95;;;;;;;4.24;100.00;99226.30;1802244;79;21803;-82
2021/12/25 12:42:54;;;;;;;41.53;27.15;;;;;;;4.12;100.00;99229.45;1802016;79;21869;-81
2021/12/25 12:46:03;;;;;;;44.75;27.75;;;;;;;3.92;100.00;99236.95;1802237;79;21152;-83
2021/12/25 12:49:13;;;;;;;39.67;26.45;;;;;;;3.76;100.00;99251.20;1801663;79;21291;-81
2021/12/25 12:52:37;;;;;;;46.50;29.12;;;;;;;3.66;100.00;99258.57;1801287;79;21284;-81
2021/12/25 12:55:49;;;;;;;45.30;29.23;;;;;;;3.57;100.00;99263.91;1802206;79;21260;-81
2021/12/25 12:59:01;;;;;;;45.43;29.57;;;;;;;3.53;100.00;99259.84;1802138;79;21161;-82
2021/12/25 13:02:10;;;;;;;47.83;28.90;;;;;;;3.55;100.00;99261.87;1801922;79;21217;-82
2021/12/25 13:05:17;;;;;;;43.40;30.90;;;;;;;3.59;100.00;99267.83;1802358;79;21303;-81
2021/12/25 13:08:33;;;;;;;48.87;29.67;;;;;;;3.61;100.00;99252.79;1801974;79;21300;-81
2021/12/25 13:11:53;;;;;;;51.65;33.73;;;;;;;3.60;100.00;99258.70;1800421;79;21157;-83
2021/12/25 13:14:47;;;;;;;50.03;32.67;;;;;;;3.51;100.00;99256.44;1801868;79;21264;-82
2021/12/25 13:18:01;;;;;;;56.70;35.35;;;;;;;3.42;100.00;99253.82;1801817;79;21293;-82
2021/12/25 13:21:08;;;;;;;57.23;35.03;;;;;;;3.35;100.00;99243.30;1801766;79;21288;-82
2021/12/25 13:24:16;;;;;;;56.20;34.15;;;;;;;3.29;100.00;99250.16;1798143;79;21198;-82
2021/12/25 13:27:27;;;;;;;54.38;33.63;;;;;;;3.26;100.00;99254.03;1786240;80;21339;-81
2021/12/25 13:30:32;;;;;;;55.63;33.00;;;;;;;3.26;100.00;99259.44;1786344;80;21943;-81
2021/12/25 13:33:41;;;;;;;44.80;30.70;;;;;;;3.25;100.00;99255.55;1786209;80;21296;-82
2021/12/25 13:36:48;;;;;;;60.08;36.68;;;;;;;3.18;100.00;99263.92;1786161;80;21791;-82
2021/12/25 13:39:53;;;;;;;54.13;33.25;;;;;;;3.13;100.00;99270.29;1786254;79;21260;-82
2021/12/25 13:42:58;;;;;;;54.55;35.23;;;;;;;3.08;100.00;99274.80;1786370;80;21834;-81
2021/12/25 13:46:06;;;;;;;59.77;35.63;;;;;;;3.06;100.00;99283.07;1786353;80;21858;-82
2021/12/25 13:49:13;;;;;;;59.25;33.92;;;;;;;2.99;100.00;99269.81;1786552;80;21799;-82
2021/12/25 13:52:33;;;;;;;50.63;32.78;;;;;;;2.90;100.00;99275.28;1785507;79;21311;-81
2021/12/25 13:55:42;;;;;;;78.35;41.25;;;;;;;2.77;100.00;99272.94;1796671;79;21264;-82
2021/12/25 13:58:49;;;;;;;114.82;51.35;;;;;;;2.61;100.00;99277.67;1797084;79;21264;-81
2021/12/25 14:02:03;;;;;;;72.15;37.45;;;;;;;2.53;100.00;99292.41;1796916;79;21758;-82
2021/12/25 14:05:14;;;;;;;56.85;35.80;;;;;;;2.40;100.00;99310.79;1796467;80;21292;-81
2021/12/25 14:08:19;;;;;;;56.35;32.65;;;;;;;2.17;100.00;99329.22;1796667;79;21884;-82
2021/12/25 14:11:28;;;;;;;51.73;31.97;;;;;;;2.00;100.00;99332.16;1797081;79;21173;-81
2021/12/25 14:14:33;;;;;;;48.98;30.82;;;;;;;1.91;100.00;99351.91;1796650;79;21221;-81
2021/12/25 14:17:38;;;;;;;59.77;36.05;;;;;;;1.84;100.00;99362.44;1797034;79;21181;-82
2021/12/25 14:20:39;;;;;;;70.75;40.23;;;;;;;1.79;100.00;99369.61;1797313;79;21378;-82
2021/12/25 14:23:31;;;;;;;63.60;38.42;;;;;;;1.78;100.00;99362.48;1769108;79;21388;-82
2021/12/25 14:26:20;;;;;;;63.98;37.75;;;;;;;1.71;100.00;99355.98;1766641;81;21864;-82
2021/12/25 14:29:26;;;;;;;63.87;36.90;;;;;;;1.62;100.00;99347.41;1766848;81;21176;-83
2021/12/25 14:32:28;;;;;;;80.65;43.10;;;;;;;1.56;100.00;99341.74;1767387;81;21321;-82
2021/12/25 14:35:25;;;;;;;99.95;53.00;;;;;;;1.51;100.00;99347.56;1766411;81;21188;-83
2021/12/25 14:38:30;;;;;;;109.03;55.28;;;;;;;1.41;100.00;99354.30;1750323;81;21177;-83
2021/12/25 14:41:39;;;;;;;97.02;51.50;;;;;;;1.34;100.00;99343.72;1769238;81;21157;-83
2021/12/25 14:44:44;;;;;;;84.20;49.18;;;;;;;1.30;100.00;99334.70;1768865;81;21165;-83
2021/12/25 14:48:06;;;;;;;80.92;45.60;;;;;;;1.21;100.00;99337.24;1769128;79;21307;-83
2021/12/25 14:51:16;;;;;;;74.25;44.53;;;;;;;1.15;100.00;99364.75;1769539;81;21252;-82
2021/12/25 14:54:21;;;;;;;58.47;38.23;;;;;;;1.14;100.00;99383.25;1741627;79;21567;-83
2021/12/25 14:57:32;;;;;;;62.08;40.43;;;;;;;1.14;100.00;99399.91;1766087;81;21361;-83
2021/12/25 15:00:37;;;;;;;67.37;41.13;;;;;;;1.13;100.00;99409.84;1769456;81;21861;-83
2021/12/25 15:03:44;;;;;;;74.47;44.65;;;;;;;1.18;100.00;99410.27;1769222;81;21334;-83
2021/12/25 15:07:14;;;;;;;73.85;47.62;;;;;;;1.24;100.00;99408.36;1769015;81;21294;-83
2021/12/25 15:10:19;;;;;;;72.92;46.73;;;;;;;1.30;100.00;99413.69;1788164;79;21260;-83
2021/12/25 15:13:25;;;;;;;78.78;45.95;;;;;;;1.33;100.00;99417.45;1790259;80;21856;-83
2021/12/25 15:16:51;;;;;;;72.40;43.68;;;;;;;1.35;100.00;99424.89;1790224;80;21271;-84
2021/12/25 15:19:58;;;;;;;69.12;40.98;;;;;;;1.40;100.00;99431.22;1789934;80;21268;-83
2021/12/25 15:23:03;;;;;;;67.27;42.20;;;;;;;1.46;100.00;99419.90;1754178;80;21315;-83
2021/12/25 15:26:18;;;;;;;69.22;42.17;;;;;;;1.47;100.00;99427.84;1772960;80;21276;-83
2021/12/25 15:29:23;;;;;;;68.95;44.18;;;;;;;1.53;100.00;99425.07;1789856;80;21280;-83
2021/12/25 15:32:28;;;;;;;68.40;39.88;;;;;;;1.59;100.00;99416.91;1789827;80;21220;-83
2021/12/25 15:35:40;;;;;;;57.70;37.05;;;;;;;1.66;100.00;99429.70;1769209;80;21225;-83